createdAt,value
2022-12-11T15:02:55.181Z,95988.94
2022-12-11T15:05:41.119Z,95991.38
2022-12-11T15:08:27.200Z,95985.47
2022-12-11T15:11:12.734Z,95993.44
2022-12-11T15:13:57.631Z,95990.91
2022-12-11T15:16:42.633Z,96000.94
2022-12-11T15:19:28.005Z,95998.78
2022-12-11T15:22:13.082Z,95998.44
2022-12-11T15:24:57.939Z,96000.91
2022-12-11T15:27:43.020Z,96007.16
2022-12-11T15:30:28.032Z,96011.25
2022-12-11T15:33:13.412Z,96000.53
2022-12-11T15:35:58.268Z,96009.53
2022-12-11T15:38:43.219Z,96004.25
2022-12-11T15:41:28.283Z,96007.63
2022-12-11T15:44:13.894Z,96018.19
2022-12-11T15:46:59.171Z,96016.09
2022-12-11T15:49:43.988Z,96010.78
2022-12-11T15:52:29.204Z,96008.84
2022-12-11T15:55:14.731Z,96020.28
2022-12-11T15:58:00.090Z,96022.50
2022-12-11T16:00:45.541Z,96023.56
2022-12-11T16:03:30.431Z,96023.22
2022-12-11T16:06:15.367Z,96021.38
2022-12-11T16:09:00.211Z,96010.41
2022-12-11T16:11:45.270Z,96008.19
2022-12-11T16:14:30.538Z,96015.97
2022-12-11T16:17:15.769Z,96018.50
2022-12-11T16:20:01.009Z,96025.56
2022-12-11T16:22:46.327Z,96027.88
2022-12-11T16:25:31.618Z,96028.56
2022-12-11T16:28:16.951Z,96029.81
2022-12-11T16:31:01.905Z,96030.06
2022-12-11T16:33:47.206Z,96035.06
2022-12-11T16:36:32.359Z,96036.09
2022-12-11T16:39:17.915Z,96029.03
2022-12-11T16:42:03.301Z,96025.78
2022-12-11T16:44:48.660Z,96024.88
2022-12-11T16:47:33.821Z,96005.47
2022-12-11T16:50:18.738Z,96002.59
2022-12-11T16:53:03.658Z,95996.69
2022-12-11T16:55:48.713Z,96005.25
2022-12-11T16:58:33.926Z,96004.91
2022-12-11T17:01:19.184Z,96024.31
2022-12-11T17:04:04.075Z,96027.69
2022-12-11T17:06:48.841Z,96025.94
2022-12-11T17:09:33.856Z,96033.44
2022-12-11T17:12:18.772Z,96048.00
2022-12-11T17:15:03.929Z,96045.13
2022-12-11T17:17:49.328Z,96044.44
2022-12-11T17:20:34.197Z,96046.16
2022-12-11T17:23:19.191Z,96042.94
2022-12-11T17:26:04.229Z,96040.94
2022-12-11T17:28:49.786Z,96038.53
2022-12-11T17:31:35.059Z,96041.19
2022-12-11T17:34:20.347Z,96031.97
2022-12-11T17:37:05.611Z,96031.25
2022-12-11T17:39:50.589Z,96039.00
2022-12-11T17:42:35.665Z,96034.03
2022-12-11T17:45:20.538Z,96034.84
2022-12-11T17:48:05.439Z,96039.22
2022-12-11T17:50:50.551Z,96032.53
2022-12-11T17:53:35.864Z,96036.81
2022-12-11T17:56:20.844Z,96030.56
2022-12-11T17:59:05.898Z,96037.25
2022-12-11T18:01:51.028Z,96034.38
2022-12-11T18:04:36.252Z,96033.56
2022-12-11T18:07:21.754Z,96023.63
2022-12-11T18:10:06.627Z,96034.59
2022-12-11T18:12:51.798Z,96029.50
2022-12-11T18:15:37.265Z,96032.28
2022-12-11T18:18:22.500Z,96034.25
2022-12-11T18:21:07.475Z,96036.22
2022-12-11T18:23:52.335Z,96040.13
2022-12-11T18:26:37.304Z,96031.13
2022-12-11T18:29:22.418Z,96041.75
2022-12-11T18:32:07.944Z,96041.31
2022-12-11T18:34:53.302Z,96035.75
2022-12-11T18:37:38.249Z,96045.22
2022-12-11T18:40:23.054Z,96044.91
2022-12-11T18:43:07.994Z,96047.66
2022-12-11T18:45:52.955Z,96047.31
2022-12-11T18:48:38.172Z,96045.44
2022-12-11T18:51:23.755Z,96051.34
2022-12-11T18:54:08.795Z,96052.84
2022-12-11T18:56:54.562Z,96049.16
2022-12-11T18:59:39.768Z,96059.06
2022-12-11T19:02:25.061Z,96052.03
2022-12-11T19:05:10.526Z,96059.44
2022-12-11T19:07:56.556Z,96052.84
2022-12-11T19:10:41.645Z,96049.94
2022-12-11T19:13:26.964Z,96052.72
2022-12-11T19:16:12.321Z,96054.25
2022-12-11T19:18:58.013Z,96054.94
2022-12-11T19:21:42.807Z,96057.69
2022-12-11T19:24:28.002Z,96054.34
2022-12-11T19:27:13.884Z,96059.44
2022-12-11T19:29:59.509Z,96058.63
2022-12-11T19:32:45.386Z,96053.41
2022-12-11T19:35:30.204Z,96048.09
2022-12-11T19:38:15.245Z,96060.00
2022-12-11T19:41:00.584Z,96058.41
2022-12-11T19:43:45.750Z,96061.19
2022-12-11T19:46:31.326Z,96059.53
2022-12-11T19:49:16.641Z,96052.72
2022-12-11T19:52:02.001Z,96052.28
2022-12-11T19:54:47.203Z,96059.09
2022-12-11T19:57:32.670Z,96054.00
2022-12-11T20:00:17.753Z,96063.00
2022-12-11T20:03:03.203Z,96067.75
2022-12-11T20:05:48.652Z,96066.94
2022-12-11T20:08:49.493Z,96061.75
2022-12-11T20:11:35.203Z,96068.06
2022-12-11T20:14:20.601Z,96063.34
2022-12-11T20:17:14.259Z,96063.34
2022-12-11T20:19:59.825Z,96067.28
2022-12-11T20:22:45.224Z,96072.69
2022-12-11T20:25:30.059Z,96058.38
2022-12-11T20:28:14.944Z,96058.03
2022-12-11T20:30:59.988Z,96063.56
2022-12-11T20:33:45.485Z,96063.56
2022-12-11T20:36:30.421Z,96055.16
2022-12-11T20:39:15.690Z,96056.28
2022-12-11T20:42:02.195Z,96054.34
2022-12-11T20:44:49.389Z,96047.66
2022-12-11T20:47:34.916Z,96049.63
2022-12-11T20:50:20.155Z,96045.66
